createdAt,value
2022-08-21T00:02:25.643Z,60
2022-08-21T00:04:58.484Z,55
2022-08-21T00:07:31.063Z,54
2022-08-21T00:10:04.058Z,59
2022-08-21T00:12:36.853Z,52
2022-08-21T00:15:12.136Z,56
2022-08-21T00:17:46.942Z,56
2022-08-21T00:20:19.369Z,51
2022-08-21T00:22:52.122Z,51
2022-08-21T00:25:26.909Z,46
2022-08-21T00:27:58.480Z,45
2022-08-21T00:30:32.336Z,48
2022-08-21T00:33:05.113Z,41
2022-08-21T00:35:39.067Z,36
2022-08-21T00:38:11.705Z,32
2022-08-21T00:40:44.409Z,34
2022-08-21T00:43:17.025Z,38
2022-08-21T00:45:49.804Z,48
2022-08-21T00:48:23.259Z,25
2022-08-21T00:50:58.240Z,28
2022-08-21T00:53:30.509Z,27
2022-08-21T00:56:06.004Z,27
2022-08-21T00:58:44.293Z,23
2022-08-21T01:01:19.689Z,17
2022-08-21T01:03:50.828Z,14
2022-08-21T01:06:21.534Z,18
2022-08-21T01:08:54.859Z,16
2022-08-21T01:11:27.347Z,8
2022-08-21T01:13:58.447Z,11
2022-08-21T01:16:31.757Z,8
2022-08-21T01:19:04.013Z,8
2022-08-21T01:21:35.295Z,8
2022-08-21T01:24:07.998Z,8
2022-08-21T01:26:40.861Z,8
2022-08-21T01:29:13.357Z,9
2022-08-21T01:31:47.282Z,5
2022-08-21T01:34:20.347Z,8
2022-08-21T01:36:55.169Z,4
2022-08-21T01:39:27.839Z,5
2022-08-21T01:42:00.655Z,4
2022-08-21T01:44:33.380Z,5
2022-08-21T01:47:06.188Z,5
2022-08-21T01:49:38.993Z,12
2022-08-21T01:52:11.476Z,5
2022-08-21T01:54:45.229Z,4
2022-08-21T01:57:29.537Z,4
2022-08-21T02:00:01.040Z,7
2022-08-21T02:02:35.471Z,7
2022-08-21T02:05:08.141Z,8
2022-08-21T02:07:40.791Z,7
2022-08-21T02:10:13.622Z,5
2022-08-21T02:12:48.340Z,4
2022-08-21T02:15:21.279Z,4
2022-08-21T02:17:53.960Z,5
2022-08-21T02:20:26.491Z,5
2022-08-21T02:23:00.439Z,4
2022-08-21T02:25:35.943Z,5
2022-08-21T02:28:07.533Z,8
2022-08-21T02:30:40.391Z,7
2022-08-21T02:33:12.896Z,7
2022-08-21T02:35:45.423Z,4
2022-08-21T02:38:16.469Z,4
2022-08-21T02:40:51.810Z,15
2022-08-21T02:43:23.399Z,7
2022-08-21T02:45:59.435Z,5
2022-08-21T02:48:31.192Z,8
2022-08-21T02:51:04.017Z,4
2022-08-21T02:53:36.630Z,4
2022-08-21T02:56:09.332Z,5
2022-08-21T02:58:42.155Z,7
2022-08-21T03:01:14.658Z,9
2022-08-21T03:03:47.599Z,7
2022-08-21T03:06:23.247Z,8
2022-08-21T03:08:57.983Z,8
2022-08-21T03:11:31.255Z,8
2022-08-21T03:14:03.887Z,7
2022-08-21T03:16:36.542Z,8
2022-08-21T03:19:09.187Z,7
2022-08-21T03:21:41.705Z,11
2022-08-21T03:24:14.262Z,8
2022-08-21T03:26:51.999Z,10
2022-08-21T03:29:24.750Z,9
2022-08-21T03:31:57.763Z,9
2022-08-21T03:34:30.239Z,9
2022-08-21T03:37:02.952Z,12
2022-08-21T03:39:36.113Z,8
2022-08-21T03:42:08.733Z,12
2022-08-21T03:44:41.829Z,11
2022-08-21T03:47:14.202Z,12
2022-08-21T03:49:47.157Z,12
2022-08-21T03:52:19.848Z,12
2022-08-21T03:54:52.579Z,15
2022-08-21T03:57:27.520Z,14
2022-08-21T04:00:06.280Z,10
2022-08-21T04:02:39.209Z,16
2022-08-21T04:05:12.069Z,16
2022-08-21T04:07:46.342Z,19
2022-08-21T04:10:19.759Z,16
2022-08-21T04:12:52.637Z,20
2022-08-21T04:15:25.572Z,17
2022-08-21T04:18:01.244Z,19
2022-08-21T04:20:34.095Z,22
2022-08-21T04:23:06.859Z,21
2022-08-21T04:25:40.582Z,16
2022-08-21T04:28:14.242Z,24
2022-08-21T04:30:46.894Z,20
2022-08-21T04:33:20.122Z,23
2022-08-21T04:35:53.251Z,19
2022-08-21T04:38:25.973Z,17
2022-08-21T04:41:28.794Z,24
2022-08-21T04:43:59.745Z,24
2022-08-21T04:46:32.349Z,19
2022-08-21T04:49:07.005Z,12
2022-08-21T04:51:38.907Z,20
2022-08-21T04:54:11.689Z,18
2022-08-21T04:56:44.251Z,21
2022-08-21T04:59:17.064Z,17
2022-08-21T05:01:50.318Z,20
2022-08-21T05:04:23.887Z,18
2022-08-21T05:06:56.926Z,25
2022-08-21T05:09:29.748Z,23
2022-08-21T05:12:02.460Z,18
2022-08-21T05:14:35.242Z,23
2022-08-21T05:17:08.086Z,31
2022-08-21T05:19:40.821Z,24
2022-08-21T05:22:13.877Z,20
2022-08-21T05:24:46.661Z,27
2022-08-21T05:27:21.071Z,25
2022-08-21T05:30:02.907Z,23
2022-08-21T05:32:35.642Z,16
2022-08-21T05:35:11.911Z,20
2022-08-21T05:37:44.499Z,28
2022-08-21T05:40:24.073Z,20
2022-08-21T05:42:57.159Z,17
2022-08-21T05:45:44.695Z,17
2022-08-21T05:48:15.422Z,21
2022-08-21T05:50:49.147Z,20
2022-08-21T05:53:22.047Z,23
2022-08-21T05:55:54.697Z,22
2022-08-21T05:58:27.581Z,21
2022-08-21T06:01:00.291Z,20
2022-08-21T06:03:33.340Z,20
2022-08-21T06:06:05.967Z,22
2022-08-21T06:08:38.269Z,23
2022-08-21T06:11:10.349Z,28
2022-08-21T06:13:40.835Z,35
2022-08-21T06:16:16.390Z,23
2022-08-21T06:18:46.328Z,24
2022-08-21T06:21:17.149Z,27
2022-08-21T06:23:49.389Z,23
2022-08-21T06:26:22.433Z,27
2022-08-21T06:28:54.699Z,32
2022-08-21T06:31:28.893Z,25
2022-08-21T06:34:01.978Z,37
2022-08-21T06:36:42.709Z,30
2022-08-21T06:39:32.687Z,24
2022-08-21T06:42:10.321Z,24
2022-08-21T06:44:41.988Z,33
2022-08-21T06:47:20.683Z,27
2022-08-21T06:49:53.761Z,26
2022-08-21T06:52:29.049Z,30
2022-08-21T06:55:03.225Z,31
2022-08-21T06:57:38.543Z,32
2022-08-21T07:00:13.361Z,39
2022-08-21T07:02:47.989Z,33
2022-08-21T07:05:20.425Z,41
2022-08-21T07:07:54.222Z,32
2022-08-21T07:10:35.727Z,34
2022-08-21T07:13:17.171Z,31
2022-08-21T07:15:48.394Z,36
2022-08-21T07:18:20.899Z,42
2022-08-21T07:20:55.541Z,32
2022-08-21T07:23:29.247Z,43
2022-08-21T07:26:04.729Z,31
2022-08-21T07:28:36.689Z,39
2022-08-21T07:31:09.595Z,45
2022-08-21T07:33:44.119Z,28
2022-08-21T07:36:16.779Z,28
2022-08-21T07:38:53.393Z,28
2022-08-21T07:41:25.039Z,24
2022-08-21T07:43:55.147Z,22
2022-08-21T07:46:30.435Z,24
2022-08-21T07:49:02.849Z,25
2022-08-21T07:51:35.699Z,16
2022-08-21T07:54:07.859Z,17
2022-08-21T07:56:40.798Z,16
2022-08-21T07:59:13.690Z,23
2022-08-21T08:01:46.758Z,16
2022-08-21T08:04:26.765Z,16
2022-08-21T08:06:57.681Z,20
2022-08-21T08:09:30.543Z,18
2022-08-21T08:12:04.106Z,20
2022-08-21T08:14:40.764Z,20
2022-08-21T08:17:12.624Z,21
2022-08-21T08:19:45.500Z,23
2022-08-21T08:22:17.349Z,24
2022-08-21T08:24:49.679Z,22
2022-08-21T08:27:22.438Z,16
2022-08-21T08:29:53.829Z,22
2022-08-21T08:32:29.332Z,30
2022-08-21T08:35:00.239Z,25
2022-08-21T08:37:36.352Z,24
2022-08-21T08:40:39.162Z,36
2022-08-21T08:43:30.838Z,16
2022-08-21T08:46:10.426Z,28
2022-08-21T08:48:53.970Z,20
2022-08-21T08:51:24.210Z,36
2022-08-21T08:54:05.924Z,20
2022-08-21T08:56:53.523Z,16
2022-08-21T08:59:33.582Z,31
2022-08-21T09:02:09.464Z,24
2022-08-21T09:04:40.723Z,40
2022-08-21T09:07:13.221Z,30
2022-08-21T09:09:45.734Z,29
2022-08-21T09:12:19.826Z,33
2022-08-21T09:14:52.440Z,29
2022-08-21T09:17:25.134Z,35
2022-08-21T09:20:07.080Z,35
2022-08-21T09:22:38.047Z,40
2022-08-21T09:25:12.704Z,33
2022-08-21T09:27:46.094Z,32
2022-08-21T09:30:19.162Z,35
2022-08-21T09:32:52.532Z,37
2022-08-21T09:35:25.206Z,35
2022-08-21T09:38:00.873Z,30
2022-08-21T09:40:33.787Z,32
2022-08-21T09:43:09.063Z,32
2022-08-21T09:45:41.016Z,36
2022-08-21T09:48:13.550Z,30
2022-08-21T09:50:46.399Z,28
2022-08-21T09:53:24.121Z,33
2022-08-21T09:55:57.118Z,25
2022-08-21T09:58:29.555Z,33
2022-08-21T10:01:02.550Z,27
2022-08-21T10:03:35.367Z,31
2022-08-21T10:06:11.370Z,30
2022-08-21T10:08:42.999Z,28
2022-08-21T10:11:15.513Z,34
2022-08-21T10:13:46.263Z,32
2022-08-21T10:16:18.303Z,32
2022-08-21T10:18:50.198Z,32
2022-08-21T10:21:23.302Z,22
2022-08-21T10:23:55.760Z,27
2022-08-21T10:26:28.436Z,26
2022-08-21T10:29:00.466Z,16
2022-08-21T10:31:32.295Z,19
2022-08-21T10:34:04.906Z,19
2022-08-21T10:36:36.328Z,17
2022-08-21T10:39:36.640Z,21
2022-08-21T10:42:10.578Z,16
2022-08-21T10:44:45.073Z,11
2022-08-21T10:47:21.769Z,10
2022-08-21T10:49:54.041Z,8
2022-08-21T10:52:26.279Z,11
2022-08-21T10:54:58.580Z,15
2022-08-21T10:57:33.046Z,8
2022-08-21T11:00:06.725Z,11
2022-08-21T11:02:38.840Z,12
2022-08-21T11:05:10.853Z,13
2022-08-21T11:07:48.381Z,12
2022-08-21T11:10:20.289Z,12
2022-08-21T11:12:53.279Z,23
2022-08-21T11:15:30.299Z,17
2022-08-21T11:18:04.687Z,13
2022-08-21T11:20:36.721Z,12
2022-08-21T11:23:10.546Z,15
2022-08-21T11:25:43.219Z,15
2022-08-21T11:28:16.540Z,17
2022-08-21T11:30:47.637Z,16
2022-08-21T11:33:20.019Z,13
2022-08-21T11:35:55.695Z,16
2022-08-21T11:38:27.383Z,27
2022-08-21T11:41:03.436Z,28
2022-08-21T11:43:35.278Z,29
2022-08-21T11:46:07.839Z,19
2022-08-21T11:48:40.929Z,23
2022-08-21T11:51:15.722Z,16
2022-08-21T11:53:54.567Z,24
2022-08-21T11:56:25.839Z,20
2022-08-21T11:59:00.328Z,18
2022-08-21T12:01:37.428Z,20
2022-08-21T12:04:11.495Z,13
2022-08-21T12:06:44.442Z,35
2022-08-21T12:09:17.260Z,26
2022-08-21T12:11:53.029Z,24
2022-08-21T12:14:26.034Z,24
2022-08-21T12:17:00.298Z,20
2022-08-21T12:19:32.846Z,20
2022-08-21T12:22:05.489Z,23
2022-08-21T12:24:37.790Z,20
2022-08-21T12:27:10.514Z,20
2022-08-21T12:29:42.485Z,19
2022-08-21T12:32:18.302Z,16
2022-08-21T12:34:54.770Z,17
2022-08-21T12:37:25.306Z,19
2022-08-21T12:39:57.874Z,15
2022-08-21T12:42:30.524Z,12
2022-08-21T12:45:03.325Z,13
2022-08-21T12:47:35.871Z,15
2022-08-21T12:50:09.314Z,16
2022-08-21T12:52:41.424Z,16
2022-08-21T12:55:13.952Z,12
2022-08-21T12:57:46.718Z,15
2022-08-21T13:00:21.819Z,14
2022-08-21T13:02:55.425Z,13
2022-08-21T13:05:30.253Z,16
2022-08-21T13:08:02.888Z,12
2022-08-21T13:10:37.123Z,15
2022-08-21T13:13:13.676Z,12
2022-08-21T13:15:58.967Z,11
2022-08-21T13:18:37.874Z,4
2022-08-21T13:21:21.472Z,9
2022-08-21T13:24:01.792Z,12
2022-08-21T13:27:22.580Z,8
2022-08-21T13:29:55.215Z,8
2022-08-21T13:32:31.381Z,8
2022-08-21T13:35:02.505Z,10
2022-08-21T13:37:34.596Z,8
2022-08-21T13:40:08.989Z,12
2022-08-21T13:42:41.008Z,9
2022-08-21T13:45:13.806Z,9
2022-08-21T13:47:47.545Z,12
2022-08-21T13:50:28.406Z,9
2022-08-21T13:53:01.470Z,12
2022-08-21T13:55:38.309Z,12
2022-08-21T13:58:10.824Z,9
2022-08-21T14:00:43.489Z,12
2022-08-21T14:03:17.509Z,8
2022-08-21T14:05:49.627Z,8
2022-08-21T14:08:31.292Z,11
2022-08-21T14:11:02.527Z,8
2022-08-21T14:13:38.435Z,13
2022-08-21T14:16:12.333Z,15
2022-08-21T14:21:43.369Z,12
2022-08-21T14:24:23.338Z,15
2022-08-21T14:26:54.031Z,16
2022-08-21T14:29:26.487Z,12
2022-08-21T14:32:25.298Z,16
2022-08-21T14:34:59.828Z,19
2022-08-21T14:37:31.159Z,11
2022-08-21T14:40:04.049Z,13
2022-08-21T14:42:40.120Z,13
2022-08-21T14:45:13.929Z,11
2022-08-21T14:47:48.835Z,15
2022-08-21T14:50:21.720Z,13
2022-08-21T14:52:55.662Z,15
2022-08-21T14:55:42.731Z,23
2022-08-21T14:58:15.469Z,12
2022-08-21T15:00:48.108Z,20
2022-08-21T15:03:20.590Z,19
2022-08-21T15:05:54.718Z,14
2022-08-21T15:08:26.975Z,24
2022-08-21T15:11:41.172Z,20
2022-08-21T15:14:13.361Z,40
2022-08-21T15:16:44.553Z,24
2022-08-21T15:19:17.320Z,30
2022-08-21T15:21:51.333Z,25
2022-08-21T15:24:24.798Z,20
2022-08-21T15:26:55.107Z,22
2022-08-21T15:29:34.128Z,21
2022-08-21T15:32:06.419Z,21
2022-08-21T15:34:38.906Z,20
2022-08-21T15:37:12.689Z,16
2022-08-21T15:39:54.726Z,17
2022-08-21T15:42:28.227Z,20
2022-08-21T15:45:04.146Z,18
2022-08-21T15:47:36.597Z,24
2022-08-21T15:50:09.487Z,27
2022-08-21T15:52:41.172Z,33
2022-08-21T15:55:13.429Z,31
2022-08-21T19:36:26.700Z,19
2022-08-21T19:38:54.829Z,16
2022-08-21T19:41:27.379Z,15
2022-08-21T19:43:59.332Z,15
2022-08-21T19:46:35.682Z,16
2022-08-21T19:49:11.195Z,15
2022-08-21T19:51:45.344Z,15
2022-08-21T19:54:18.068Z,15
2022-08-21T19:56:51.021Z,15
2022-08-21T19:59:25.410Z,15
2022-08-21T20:01:59.817Z,15
2022-08-21T20:04:32.870Z,16
